Time;durP1;ratioP1;P1;durP2;ratioP2;P2;SDS_P1;SDS_P2;PMS_P1;PMS_P2;Temp;Humidity;BMP_temperature;BMP_pressure;BME280_temperature;BME280_humidity;BME280_pressure;Samples;Min_cycle;Max_cycle;Signal;HPM_P1;HPM_P2
2022/02/17 00:01:40;;;;;;;2.53;0.90;;;11.30;92.40;;;;;;5031679;28;20033;-77
2022/02/17 00:04:05;;;;;;;1.95;0.73;;;11.30;92.40;;;;;;5019060;28;20026;-77
2022/02/17 00:06:31;;;;;;;2.50;1.10;;;11.30;92.60;;;;;;5019238;28;20026;-77
2022/02/17 00:08:56;;;;;;;3.60;0.90;;;11.30;92.60;;;;;;5036444;28;20483;-77
2022/02/17 00:11:22;;;;;;;4.90;0.90;;;11.30;92.50;;;;;;5037679;28;20067;-77
2022/02/17 00:13:47;;;;;;;3.35;0.88;;;11.30;92.60;;;;;;5047889;28;20009;-77
2022/02/17 00:16:13;;;;;;;2.40;1.08;;;11.30;92.50;;;;;;5036579;28;20044;-76
2022/02/17 00:18:39;;;;;;;5.20;0.95;;;11.30;92.60;;;;;;5035005;28;20380;-76
2022/02/17 00:21:05;;;;;;;8.40;0.90;;;11.30;92.50;;;;;;5018888;28;20112;-77
2022/02/17 00:23:30;;;;;;;17.85;1.77;;;11.30;92.50;;;;;;5035058;28;20472;-77
2022/02/17 00:25:56;;;;;;;28.92;2.60;;;11.30;92.50;;;;;;5036432;28;20099;-77
2022/02/17 00:28:21;;;;;;;73.45;6.22;;;11.30;92.60;;;;;;5018419;28;20040;-76
2022/02/17 00:30:47;;;;;;;39.72;3.40;;;11.30;92.50;;;;;;5018430;28;20108;-77
2022/02/17 00:33:13;;;;;;;21.67;2.17;;;11.30;92.50;;;;;;5018642;28;20040;-77
2022/02/17 00:35:38;;;;;;;24.48;2.42;;;11.30;92.60;;;;;;5047529;28;20036;-77
2022/02/17 00:38:04;;;;;;;14.13;1.80;;;11.30;92.50;;;;;;5038153;28;20024;-77
2022/02/17 00:40:29;;;;;;;20.05;2.75;;;11.30;92.40;;;;;;5037869;28;20079;-77
2022/02/17 00:42:56;;;;;;;13.90;1.80;;;11.30;92.40;;;;;;5038211;28;20382;-77
2022/02/17 00:45:21;;;;;;;11.88;1.50;;;11.30;92.30;;;;;;5055977;28;20025;-77
2022/02/17 00:47:47;;;;;;;10.50;1.40;;;11.30;92.40;;;;;;5055769;28;20496;-77
2022/02/17 00:50:12;;;;;;;7.60;1.20;;;11.30;92.40;;;;;;5019833;28;20491;-77
2022/02/17 00:52:38;;;;;;;12.38;1.38;;;11.30;92.30;;;;;;5031511;28;20120;-77
2022/02/17 00:55:05;;;;;;;7.10;1.25;;;11.30;92.30;;;;;;5021237;28;20544;-77
2022/02/17 00:57:31;;;;;;;6.57;1.10;;;11.30;92.20;;;;;;5036111;28;20057;-77
2022/02/17 00:59:56;;;;;;;7.10;1.40;;;11.30;92.20;;;;;;5017758;28;20447;-77
2022/02/17 01:02:22;;;;;;;6.70;1.52;;;11.30;92.20;;;;;;5034354;28;20032;-77
2022/02/17 01:04:47;;;;;;;6.85;1.20;;;11.30;92.10;;;;;;5034393;28;20035;-77
2022/02/17 01:07:14;;;;;;;6.13;1.10;;;11.30;92.10;;;;;;5017915;28;20030;-77
2022/02/17 01:09:39;;;;;;;6.72;1.25;;;11.30;92.00;;;;;;5017790;28;20512;-77
2022/02/17 01:12:05;;;;;;;8.23;1.60;;;11.30;92.10;;;;;;5017617;28;20025;-77
2022/02/17 01:14:31;;;;;;;5.93;1.23;;;11.30;92.00;;;;;;5034610;28;20033;-77
2022/02/17 01:16:57;;;;;;;8.15;1.42;;;11.30;92.00;;;;;;5017801;28;20441;-77
2022/02/17 01:19:22;;;;;;;5.32;1.35;;;11.30;92.00;;;;;;5035403;28;20061;-77
2022/02/17 01:21:48;;;;;;;4.47;1.13;;;11.30;91.90;;;;;;5017672;28;20034;-77
2022/02/17 01:24:14;;;;;;;6.60;1.35;;;11.30;91.90;;;;;;5017616;28;20029;-77
2022/02/17 01:26:39;;;;;;;6.65;1.40;;;11.30;91.90;;;;;;5017739;28;20029;-77
2022/02/17 01:29:05;;;;;;;8.75;1.67;;;11.30;91.80;;;;;;5017208;28;20022;-77
2022/02/17 01:31:30;;;;;;;11.25;2.03;;;11.20;91.70;;;;;;5027673;28;20028;-76
2022/02/17 01:33:56;;;;;;;8.45;1.50;;;11.30;91.70;;;;;;5037315;28;20452;-77
2022/02/17 01:36:22;;;;;;;12.88;1.85;;;11.30;91.60;;;;;;5038152;28;20021;-77
2022/02/17 01:38:47;;;;;;;11.77;1.67;;;11.30;91.60;;;;;;5044216;28;20071;-77
2022/02/17 01:41:16;;;;;;;11.50;1.40;;;11.30;91.60;;;;;;5017124;28;20029;-76
2022/02/17 01:43:42;;;;;;;9.00;1.67;;;11.30;91.50;;;;;;5035408;28;20061;-78
2022/02/17 01:46:08;;;;;;;10.15;1.70;;;11.20;91.50;;;;;;5034955;28;20442;-77
2022/02/17 01:48:34;;;;;;;9.70;1.77;;;11.30;91.50;;;;;;5017161;28;20025;-77
2022/02/17 01:51:00;;;;;;;11.20;1.73;;;11.20;91.40;;;;;;5017039;28;20034;-77
2022/02/17 01:53:26;;;;;;;7.47;1.48;;;11.30;91.30;;;;;;5017208;28;20052;-78
2022/02/17 01:55:54;;;;;;;7.03;1.15;;;11.20;91.20;;;;;;5017169;28;20029;-78
2022/02/17 01:58:21;;;;;;;8.13;1.42;;;11.20;91.20;;;;;;5033536;28;20487;-77
2022/02/17 02:00:46;;;;;;;8.68;1.40;;;11.20;91.10;;;;;;5016978;28;20026;-77
2022/02/17 02:03:13;;;;;;;7.50;1.60;;;11.20;91.10;;;;;;5016923;28;20494;-77
2022/02/17 02:05:39;;;;;;;4.65;0.90;;;11.20;91.10;;;;;;5016899;28;20060;-77
2022/02/17 02:08:06;;;;;;;7.35;1.10;;;11.20;91.00;;;;;;5017466;28;20078;-78
2022/02/17 02:10:31;;;;;;;5.90;1.00;;;11.20;91.00;;;;;;5036353;28;20090;-78
2022/02/17 02:12:57;;;;;;;4.97;1.20;;;11.20;91.00;;;;;;5032619;28;20029;-78
2022/02/17 02:15:23;;;;;;;6.07;1.30;;;11.20;90.90;;;;;;5024492;28;20032;-77
2022/02/17 02:17:48;;;;;;;4.75;1.10;;;11.20;90.90;;;;;;5036372;28;20029;-78
2022/02/17 02:20:18;;;;;;;5.07;1.50;;;11.20;90.90;;;;;;5053983;28;20108;-77
2022/02/17 02:22:45;;;;;;;5.40;1.10;;;11.20;90.90;;;;;;5054515;28;20108;-78
2022/02/17 02:25:10;;;;;;;4.50;0.82;;;11.20;90.90;;;;;;5035502;28;20025;-78
2022/02/17 02:27:36;;;;;;;6.20;1.10;;;11.20;90.90;;;;;;5027218;28;20439;-77
2022/02/17 02:30:02;;;;;;;7.55;1.30;;;11.20;90.90;;;;;;5034034;28;20022;-78
2022/02/17 02:32:28;;;;;;;7.40;1.50;;;11.20;91.00;;;;;;5041684;28;20053;-77
2022/02/17 02:34:54;;;;;;;6.35;1.25;;;11.20;91.00;;;;;;5054437;28;20364;-78
2022/02/17 02:37:19;;;;;;;6.20;0.90;;;11.20;91.00;;;;;;5036312;28;20395;-78
2022/02/17 02:39:45;;;;;;;5.35;1.30;;;11.20;91.00;;;;;;5036148;28;20032;-77
2022/02/17 02:42:10;;;;;;;6.82;1.50;;;11.20;91.00;;;;;;5053056;28;20028;-77
2022/02/17 02:44:36;;;;;;;6.00;1.30;;;11.20;91.00;;;;;;5053767;28;20033;-78
2022/02/17 02:47:03;;;;;;;10.63;1.52;;;11.20;90.90;;;;;;5053703;28;20184;-78
2022/02/17 02:49:29;;;;;;;7.35;1.30;;;11.20;90.90;;;;;;5035769;28;20029;-77
2022/02/17 02:51:54;;;;;;;6.65;1.30;;;11.20;91.00;;;;;;5035768;28;20508;-78
2022/02/17 02:54:20;;;;;;;8.05;1.52;;;11.20;90.90;;;;;;5044942;28;20025;-78
2022/02/17 02:56:46;;;;;;;7.70;1.70;;;11.20;91.00;;;;;;5021476;28;20017;-78
2022/02/17 02:59:11;;;;;;;8.95;1.80;;;11.20;91.00;;;;;;5035509;28;20383;-77
2022/02/17 03:01:37;;;;;;;7.60;1.40;;;11.20;91.00;;;;;;5022600;28;20055;-77
2022/02/17 03:04:03;;;;;;;8.13;1.48;;;11.20;91.10;;;;;;5033576;28;20060;-77
2022/02/17 03:06:29;;;;;;;5.80;1.52;;;11.20;91.00;;;;;;5033775;28;20021;-77
2022/02/17 03:08:56;;;;;;;7.97;1.58;;;11.20;91.00;;;;;;5015423;28;20441;-77
2022/02/17 03:11:22;;;;;;;9.35;1.77;;;11.20;91.10;;;;;;5015723;28;20022;-78
2022/02/17 03:13:47;;;;;;;7.20;1.85;;;11.20;91.10;;;;;;5015705;28;20083;-78
2022/02/17 03:16:13;;;;;;;6.43;1.58;;;11.20;91.10;;;;;;5018579;28;20382;-78
2022/02/17 03:18:38;;;;;;;8.23;1.90;;;11.20;91.00;;;;;;5035202;28;20039;-78
2022/02/17 03:21:04;;;;;;;8.00;1.42;;;11.20;91.00;;;;;;5033697;28;20028;-78
2022/02/17 03:23:30;;;;;;;9.32;1.48;;;11.20;91.10;;;;;;5015349;28;20083;-78
2022/02/17 03:25:57;;;;;;;6.03;1.73;;;11.20;91.00;;;;;;5015550;28;20074;-78
2022/02/17 03:28:22;;;;;;;9.13;1.55;;;11.20;91.00;;;;;;5033224;28;20026;-78
2022/02/17 03:30:48;;;;;;;10.75;1.98;;;11.20;90.90;;;;;;5033058;28;20029;-77
2022/02/17 03:33:14;;;;;;;9.30;1.40;;;11.20;90.90;;;;;;5075697;23;22196;-77
2022/02/17 03:35:39;;;;;;;7.57;1.63;;;11.20;90.80;;;;;;5053358;28;20066;-78
2022/02/17 03:38:05;;;;;;;10.20;2.05;;;11.20;90.70;;;;;;5053998;28;20032;-77
2022/02/17 03:40:30;;;;;;;5.57;1.20;;;11.20;90.60;;;;;;5050454;28;20028;-77
2022/02/17 03:42:56;;;;;;;8.65;1.63;;;11.20;90.50;;;;;;5048694;28;20035;-77
2022/02/17 03:45:22;;;;;;;7.88;2.00;;;11.20;90.50;;;;;;5054189;28;20034;-77
2022/02/17 03:47:47;;;;;;;6.47;1.58;;;11.20;90.50;;;;;;5071297;28;20039;-77
2022/02/17 03:50:13;;;;;;;8.32;1.70;;;11.20;90.50;;;;;;5072046;28;20029;-77
2022/02/17 03:52:41;;;;;;;9.77;1.75;;;11.20;90.50;;;;;;5071284;28;20441;-77
2022/02/17 03:55:08;;;;;;;7.57;1.65;;;11.20;90.40;;;;;;5065502;28;20025;-77
2022/02/17 03:57:33;;;;;;;9.43;2.33;;;11.20;90.40;;;;;;5052194;28;20508;-77
2022/02/17 03:59:59;;;;;;;8.85;2.50;;;11.20;90.30;;;;;;5052227;28;20067;-77
2022/02/17 04:02:25;;;;;;;7.32;1.63;;;11.20;90.30;;;;;;5052456;28;20025;-77
2022/02/17 04:04:50;;;;;;;10.75;1.77;;;11.20;90.30;;;;;;5071187;28;20481;-76
2022/02/17 04:07:16;;;;;;;11.98;2.72;;;11.20;90.30;;;;;;5049284;28;20033;-77
2022/02/17 04:09:42;;;;;;;11.95;2.38;;;11.20;90.50;;;;;;5034274;28;20497;-78
2022/02/17 04:12:08;;;;;;;7.85;2.05;;;11.20;90.20;;;;;;5034670;28;20063;-77
2022/02/17 04:14:34;;;;;;;9.07;1.95;;;11.20;90.20;;;;;;5052652;28;20113;-78
2022/02/17 04:17:00;;;;;;;9.00;2.45;;;11.20;90.20;;;;;;5052416;28;20032;-78
2022/02/17 04:19:26;;;;;;;8.25;1.80;;;11.20;90.10;;;;;;5034762;28;20025;-77
2022/02/17 04:21:53;;;;;;;7.07;1.80;;;11.20;90.10;;;;;;5034567;28;20050;-77
2022/02/17 04:24:19;;;;;;;8.80;1.85;;;11.20;90.00;;;;;;5034718;28;20056;-78
2022/02/17 04:26:44;;;;;;;8.43;1.70;;;11.20;89.90;;;;;;5034397;28;20563;-77
2022/02/17 04:29:10;;;;;;;10.20;2.13;;;11.20;89.80;;;;;;5054115;28;20028;-77
2022/02/17 04:31:35;;;;;;;8.30;1.70;;;11.20;89.60;;;;;;5054174;28;20031;-78
2022/02/17 04:34:01;;;;;;;6.30;1.80;;;11.20;89.40;;;;;;5072282;28;20033;-78
2022/02/17 04:36:26;;;;;;;8.10;2.10;;;11.20;89.30;;;;;;5054433;28;20029;-77
2022/02/17 04:38:52;;;;;;;10.02;1.90;;;11.20;89.10;;;;;;5071824;28;20516;-77
2022/02/17 04:44:02;;;;;;;9.80;1.60;;;11.20;88.90;;;;;;5072161;28;20059;-78
2022/02/17 04:46:28;;;;;;;10.30;2.17;;;11.20;89.00;;;;;;5053906;28;20025;-78
2022/02/17 04:48:53;;;;;;;6.22;1.60;;;11.20;88.70;;;;;;5054226;28;20477;-77
2022/02/17 04:51:19;;;;;;;8.75;1.55;;;11.20;88.70;;;;;;5075729;28;20020;-76
2022/02/17 04:53:44;;;;;;;9.93;1.85;;;11.20;88.50;;;;;;5054268;28;20021;-77
2022/02/17 04:56:10;;;;;;;9.57;2.03;;;11.20;88.40;;;;;;5037990;28;20025;-77
2022/02/17 04:58:36;;;;;;;7.30;1.75;;;11.20;88.40;;;;;;5037046;28;20020;-76
2022/02/17 05:01:01;;;;;;;7.30;1.77;;;11.20;88.30;;;;;;5045370;28;20470;-77
2022/02/17 05:03:27;;;;;;;7.80;1.70;;;11.20;88.30;;;;;;5057352;28;20579;-78
2022/02/17 05:05:53;;;;;;;9.32;2.20;;;11.20;88.20;;;;;;5057513;28;20020;-77
2022/02/17 05:08:19;;;;;;;8.43;1.85;;;11.20;88.10;;;;;;5046959;28;20029;-77
2022/02/17 05:10:46;;;;;;;9.18;1.50;;;11.20;88.10;;;;;;5046922;28;20031;-78
2022/02/17 05:13:12;;;;;;;11.25;1.90;;;11.20;88.00;;;;;;5056927;28;20047;-76
2022/02/17 05:15:41;;;;;;;9.50;1.95;;;11.20;88.00;;;;;;5070802;28;20032;-77
2022/02/17 05:18:07;;;;;;;8.07;1.85;;;11.20;87.60;;;;;;5051478;28;20079;-76
2022/02/17 05:20:32;;;;;;;8.15;1.73;;;11.20;87.60;;;;;;5043835;28;20125;-76
2022/02/17 05:22:58;;;;;;;6.97;1.67;;;11.10;87.70;;;;;;5070962;28;20623;-76
2022/02/17 05:25:23;;;;;;;7.57;1.80;;;11.20;88.00;;;;;;5052666;28;20043;-76
2022/02/17 05:27:49;;;;;;;9.52;1.80;;;11.20;87.70;;;;;;5053000;28;20505;-76
2022/02/17 05:30:15;;;;;;;7.53;1.70;;;11.20;88.10;;;;;;5053072;28;20514;-75
2022/02/17 05:32:42;;;;;;;8.27;1.80;;;11.20;87.60;;;;;;5034591;28;20033;-76
2022/02/17 05:35:09;;;;;;;8.52;1.73;;;11.10;87.30;;;;;;5032965;28;20029;-76
2022/02/17 05:37:36;;;;;;;7.18;1.70;;;11.20;87.90;;;;;;5052721;28;20135;-76
2022/02/17 05:40:03;;;;;;;9.40;1.77;;;11.10;87.10;;;;;;5088550;28;20481;-75
2022/02/17 05:42:28;;;;;;;8.00;1.77;;;11.10;87.10;;;;;;5065711;28;20059;-76
2022/02/17 05:44:54;;;;;;;9.25;2.08;;;11.00;87.00;;;;;;5058073;28;20478;-76
2022/02/17 05:47:19;;;;;;;7.40;1.67;;;11.10;86.90;;;;;;5069977;28;20092;-75
2022/02/17 05:49:45;;;;;;;7.38;1.50;;;11.10;86.80;;;;;;5051720;28;20564;-76
2022/02/17 05:52:10;;;;;;;8.20;1.60;;;11.20;86.90;;;;;;5032477;28;20025;-75
2022/02/17 05:54:36;;;;;;;7.20;1.70;;;11.10;87.00;;;;;;5045364;28;20032;-76
2022/02/17 05:57:01;;;;;;;8.40;1.90;;;11.20;87.30;;;;;;5052252;28;20033;-75
2022/02/17 05:59:27;;;;;;;21.42;4.03;;;11.10;87.10;;;;;;5046362;28;20094;-76
2022/02/17 06:01:52;;;;;;;141.30;24.27;;;11.10;87.10;;;;;;5037520;28;20055;-76
2022/02/17 06:04:18;;;;;;;296.88;47.17;;;11.10;87.30;;;;;;5061697;28;20029;-76
2022/02/17 06:06:43;;;;;;;248.27;39.17;;;11.20;87.50;;;;;;5033401;28;20079;-77
2022/02/17 06:09:09;;;;;;;212.75;34.30;;;11.10;87.20;;;;;;5045849;28;20097;-76
2022/02/17 06:11:34;;;;;;;144.68;27.95;;;11.10;87.30;;;;;;5052931;28;20024;-77
2022/02/17 06:14:00;;;;;;;110.15;21.65;;;11.10;87.40;;;;;;5058623;28;20099;-77
2022/02/17 06:16:25;;;;;;;104.07;18.83;;;11.10;87.10;;;;;;5057807;28;20116;-77
2022/02/17 06:18:51;;;;;;;101.13;20.25;;;11.10;86.90;;;;;;5040439;28;20021;-77
2022/02/17 06:21:16;;;;;;;58.50;12.77;;;11.10;86.80;;;;;;5053577;28;20035;-76
2022/02/17 06:23:42;;;;;;;63.53;11.35;;;11.10;87.00;;;;;;5053990;28;20198;-76
2022/02/17 06:26:08;;;;;;;56.08;10.43;;;11.10;86.80;;;;;;5045820;28;20082;-76
2022/02/17 06:28:33;;;;;;;49.60;10.65;;;11.10;86.90;;;;;;5053181;28;20024;-75
2022/02/17 06:30:59;;;;;;;39.78;9.23;;;11.10;87.00;;;;;;5042612;28;20029;-77
2022/02/17 06:33:24;;;;;;;56.42;9.80;;;11.10;87.10;;;;;;5037937;28;20036;-76
2022/02/17 06:35:50;;;;;;;39.17;8.32;;;11.10;86.80;;;;;;5071434;28;20032;-76
2022/02/17 06:38:16;;;;;;;38.33;7.97;;;11.20;87.20;;;;;;5053624;28;20035;-76
2022/02/17 06:40:42;;;;;;;36.63;7.93;;;11.20;87.20;;;;;;5052113;28;20029;-77
2022/02/17 06:43:10;;;;;;;36.35;7.25;;;11.20;87.20;;;;;;5034039;28;20634;-76
2022/02/17 06:45:37;;;;;;;38.47;6.93;;;11.20;87.30;;;;;;5034288;28;20021;-76
2022/02/17 06:48:05;;;;;;;30.45;6.82;;;11.20;87.00;;;;;;5033272;28;20021;-75
2022/02/17 06:50:32;;;;;;;27.70;6.68;;;11.20;87.00;;;;;;5045045;28;20070;-76
2022/02/17 06:52:57;;;;;;;29.05;4.97;;;11.20;86.90;;;;;;5064093;28;20100;-76
2022/02/17 06:55:23;;;;;;;24.92;4.32;;;11.20;87.00;;;;;;5051169;28;20104;-76
2022/02/17 06:57:48;;;;;;;26.13;4.93;;;11.20;86.70;;;;;;5053119;28;20025;-76
2022/02/17 07:00:14;;;;;;;25.95;5.35;;;11.20;86.70;;;;;;5052048;28;20078;-76
2022/02/17 07:02:40;;;;;;;25.20;4.40;;;11.20;86.30;;;;;;5034383;28;20052;-75
2022/02/17 07:05:06;;;;;;;20.00;3.95;;;11.10;86.70;;;;;;5053906;28;20041;-76
2022/02/17 07:07:35;;;;;;;22.17;4.72;;;11.20;86.60;;;;;;5039020;28;20056;-75
2022/02/17 07:10:02;;;;;;;18.52;3.55;;;11.20;86.30;;;;;;5057636;28;20032;-76
2022/02/17 07:12:28;;;;;;;19.38;3.60;;;11.10;86.10;;;;;;5060292;28;20017;-76
2022/02/17 07:14:57;;;;;;;21.70;3.50;;;11.10;86.00;;;;;;5048689;28;20409;-76
2022/02/17 07:17:23;;;;;;;24.25;3.75;;;11.10;86.00;;;;;;5053267;28;20021;-76
2022/02/17 07:19:48;;;;;;;18.33;3.75;;;11.10;85.80;;;;;;5053876;28;20021;-76
2022/02/17 07:22:14;;;;;;;18.42;3.67;;;11.10;86.00;;;;;;5072320;28;20028;-76
2022/02/17 07:24:39;;;;;;;18.00;3.67;;;11.10;85.90;;;;;;5072202;28;20025;-76
2022/02/17 07:27:06;;;;;;;18.38;2.88;;;11.10;85.70;;;;;;5053874;28;20028;-76
2022/02/17 07:29:31;;;;;;;18.08;3.63;;;11.10;85.60;;;;;;5071825;28;20070;-76
2022/02/17 07:31:57;;;;;;;15.75;2.90;;;11.10;85.70;;;;;;5054289;28;20032;-76
2022/02/17 07:34:22;;;;;;;17.77;3.83;;;11.10;85.40;;;;;;5071899;28;20074;-76
2022/02/17 07:36:48;;;;;;;15.43;3.20;;;11.10;85.40;;;;;;5054171;28;20082;-76
2022/02/17 07:39:14;;;;;;;14.07;2.85;;;11.10;85.20;;;;;;5071847;28;20036;-76
2022/02/17 07:41:39;;;;;;;14.98;2.65;;;11.10;85.40;;;;;;5072051;28;20052;-76
2022/02/17 07:44:06;;;;;;;14.18;2.70;;;11.10;85.20;;;;;;5053972;28;20077;-76
2022/02/17 07:46:33;;;;;;;11.52;2.15;;;11.10;85.10;;;;;;5054058;28;20086;-76
2022/02/17 07:49:00;;;;;;;10.32;1.95;;;11.10;85.10;;;;;;5053620;28;20036;-76
2022/02/17 07:51:27;;;;;;;9.25;2.03;;;11.10;85.20;;;;;;5072054;28;20021;-76
2022/02/17 07:53:52;;;;;;;13.43;2.80;;;11.10;85.40;;;;;;5053856;28;20371;-76
2022/02/17 07:56:18;;;;;;;15.02;2.35;;;11.10;85.30;;;;;;5071934;28;20021;-77
2022/02/17 07:58:44;;;;;;;7.57;2.00;;;11.20;84.90;;;;;;5071628;28;20166;-76
2022/02/17 08:01:09;;;;;;;12.05;2.35;;;11.20;85.10;;;;;;5053962;28;20029;-76
2022/02/17 08:03:36;;;;;;;9.43;1.90;;;11.20;85.10;;;;;;5054136;28;20390;-76
2022/02/17 08:06:02;;;;;;;9.27;2.30;;;11.20;85.00;;;;;;5053871;28;20477;-76
2022/02/17 08:08:27;;;;;;;8.43;2.00;;;11.20;85.00;;;;;;5053651;28;20060;-77
2022/02/17 08:10:53;;;;;;;11.40;2.30;;;11.10;84.80;;;;;;5053615;28;20052;-76
2022/02/17 08:13:19;;;;;;;10.38;2.00;;;11.20;84.90;;;;;;5053884;28;20074;-76
2022/02/17 08:15:45;;;;;;;10.20;2.13;;;11.10;84.80;;;;;;5071708;28;20051;-76
2022/02/17 08:18:10;;;;;;;7.18;1.63;;;11.10;84.70;;;;;;5071582;28;20025;-76
2022/02/17 08:20:36;;;;;;;9.18;2.00;;;11.10;84.50;;;;;;5053562;28;20040;-76
2022/02/17 08:23:02;;;;;;;8.75;2.10;;;11.10;84.50;;;;;;5054599;28;20029;-76
2022/02/17 08:25:28;;;;;;;8.32;1.55;;;11.10;84.40;;;;;;5057926;28;20024;-76
2022/02/17 08:27:54;;;;;;;8.98;2.13;;;11.10;84.40;;;;;;5057020;28;20035;-76
2022/02/17 08:30:20;;;;;;;9.05;1.63;;;11.10;84.40;;;;;;5075139;28;20482;-76
2022/02/17 08:32:46;;;;;;;6.43;1.77;;;11.10;84.40;;;;;;5057593;28;20119;-76
2022/02/17 08:35:12;;;;;;;10.05;2.05;;;11.10;84.40;;;;;;5075331;28;20032;-76
2022/02/17 08:37:39;;;;;;;8.25;1.60;;;11.10;84.00;;;;;;5057471;28;20021;-76
2022/02/17 08:40:07;;;;;;;8.73;2.20;;;11.10;84.30;;;;;;5053264;28;20021;-76
2022/02/17 08:42:33;;;;;;;9.25;1.75;;;11.10;84.30;;;;;;5037425;28;20063;-76
2022/02/17 08:44:59;;;;;;;8.10;1.52;;;11.10;84.20;;;;;;5036252;28;20063;-76
2022/02/17 08:47:24;;;;;;;8.05;1.77;;;11.10;84.20;;;;;;5037464;28;20102;-76
2022/02/17 08:49:50;;;;;;;7.40;1.77;;;11.10;84.00;;;;;;5036772;28;20483;-76
2022/02/17 08:52:16;;;;;;;7.80;1.60;;;11.10;84.00;;;;;;5054964;28;20029;-76
2022/02/17 08:54:41;;;;;;;8.60;1.48;;;11.10;83.70;;;;;;5037273;28;20408;-76
2022/02/17 08:57:07;;;;;;;9.05;1.67;;;11.10;84.00;;;;;;5037229;28;20021;-76
2022/02/17 08:59:33;;;;;;;6.72;1.65;;;11.10;83.80;;;;;;5054779;28;20402;-76
2022/02/17 09:01:59;;;;;;;8.63;1.70;;;11.10;83.70;;;;;;5055219;28;20043;-76
2022/02/17 09:04:27;;;;;;;7.13;1.30;;;11.10;83.70;;;;;;5055233;28;20025;-75
2022/02/17 09:06:53;;;;;;;6.50;1.40;;;11.10;83.60;;;;;;5054735;28;20045;-76
2022/02/17 09:09:18;;;;;;;8.38;1.73;;;11.10;83.50;;;;;;5054438;28;20072;-76
2022/02/17 09:11:44;;;;;;;9.52;1.50;;;11.20;82.90;;;;;;5037081;28;20343;-76
2022/02/17 09:14:09;;;;;;;6.50;1.40;;;11.30;82.60;;;;;;5036897;28;20025;-76
2022/02/17 09:16:35;;;;;;;6.75;1.60;;;11.30;83.00;;;;;;5054664;28;20023;-75
2022/02/17 09:19:03;;;;;;;7.40;1.40;;;11.20;82.90;;;;;;5054338;28;20029;-76
2022/02/17 09:21:29;;;;;;;8.90;1.48;;;11.30;83.20;;;;;;5054557;28;20032;-76
2022/02/17 09:23:54;;;;;;;6.15;1.38;;;11.20;83.20;;;;;;5036633;28;20394;-76
2022/02/17 09:26:20;;;;;;;6.35;1.27;;;11.20;83.20;;;;;;5036740;28;20071;-76
2022/02/17 09:28:48;;;;;;;5.60;1.42;;;11.20;83.40;;;;;;5054097;28;20021;-76
2022/02/17 09:31:18;;;;;;;7.53;1.30;;;11.10;83.20;;;;;;5036555;28;20025;-76
2022/02/17 09:33:51;;;;;;;7.82;1.52;;;11.10;82.90;;;;;;5060871;23;20083;-76
2022/02/17 09:36:17;;;;;;;6.60;1.25;;;11.10;82.90;;;;;;5073999;28;20501;-77
2022/02/17 09:38:43;;;;;;;6.40;1.40;;;11.10;83.00;;;;;;5056493;28;20097;-77
2022/02/17 09:41:10;;;;;;;5.90;1.50;;;11.10;83.20;;;;;;5074375;28;20521;-77
2022/02/17 09:43:36;;;;;;;6.53;1.40;;;11.10;83.20;;;;;;5062640;28;20051;-76
2022/02/17 09:46:03;;;;;;;6.95;1.45;;;11.20;82.70;;;;;;5046196;28;20094;-76
2022/02/17 09:48:29;;;;;;;6.85;1.27;;;11.20;82.20;;;;;;5052293;28;20044;-77
2022/02/17 09:50:55;;;;;;;7.63;1.48;;;11.20;82.70;;;;;;5046008;28;20070;-76
2022/02/17 09:53:20;;;;;;;7.28;1.45;;;11.20;82.70;;;;;;5041646;28;20060;-77
2022/02/17 09:55:46;;;;;;;7.35;1.30;;;11.20;82.70;;;;;;5055506;28;20390;-76
2022/02/17 09:58:15;;;;;;;8.18;1.52;;;11.20;82.40;;;;;;5038047;28;20031;-76
2022/02/17 10:00:40;;;;;;;5.65;1.55;;;11.20;81.60;;;;;;5037324;28;20060;-77
2022/02/17 10:03:28;;;;;;;6.68;1.35;;;11.30;81.80;;;;;;5038281;28;20053;-77
2022/02/17 10:06:08;;;;;;;6.40;1.40;;;11.30;81.50;;;;;;5037189;28;20456;-77
2022/02/17 10:08:35;;;;;;;7.63;1.20;;;11.30;81.20;;;;;;5053953;28;20935;-76
2022/02/17 10:11:01;;;;;;;7.63;1.38;;;11.30;81.40;;;;;;5036743;28;20025;-76
2022/02/17 10:13:27;;;;;;;6.68;1.20;;;11.30;81.80;;;;;;5037001;28;20025;-76
2022/02/17 10:15:58;;;;;;;7.32;1.88;;;11.30;82.00;;;;;;5037292;28;20028;-76
2022/02/17 10:18:27;;;;;;;6.13;1.30;;;11.20;81.90;;;;;;5036807;28;20048;-76
2022/02/17 10:20:54;;;;;;;7.28;1.52;;;11.20;82.10;;;;;;5036996;28;20478;-76
2022/02/17 10:23:29;;;;;;;8.05;1.50;;;11.20;82.10;;;;;;5054834;28;20025;-76
2022/02/17 10:26:28;;;;;;;6.20;1.30;;;11.20;82.10;;;;;;5055195;28;20021;-76
2022/02/17 10:28:57;;;;;;;9.57;1.70;;;11.20;82.20;;;;;;5046853;28;20124;-76
2022/02/17 10:31:24;;;;;;;7.05;1.20;;;11.20;82.20;;;;;;5037034;28;20100;-76
2022/02/17 10:33:53;;;;;;;5.38;1.17;;;11.20;82.10;;;;;;5054807;28;20577;-77
2022/02/17 10:36:38;;;;;;;5.50;1.20;;;11.20;82.20;;;;;;5037488;28;20033;-77
2022/02/17 10:39:15;;;;;;;6.75;1.23;;;11.20;82.30;;;;;;5036682;28;20025;-76
2022/02/17 10:41:55;;;;;;;5.35;1.20;;;11.20;82.40;;;;;;5054173;28;20483;-76
2022/02/17 10:44:31;;;;;;;6.00;1.20;;;11.20;82.20;;;;;;5053756;28;20492;-76
2022/02/17 10:46:57;;;;;;;7.22;1.70;;;11.20;82.40;;;;;;5051594;28;20475;-76
2022/02/17 10:49:23;;;;;;;7.65;1.35;;;11.20;82.20;;;;;;5034633;28;20026;-76
2022/02/17 10:51:50;;;;;;;5.43;1.20;;;11.20;82.20;;;;;;5034404;28;20026;-76
2022/02/17 10:54:20;;;;;;;7.32;1.40;;;11.20;82.10;;;;;;5024281;28;20033;-77
2022/02/17 10:56:46;;;;;;;7.25;1.63;;;11.20;82.10;;;;;;5035168;28;20027;-76
2022/02/17 11:01:57;;;;;;;6.88;1.20;;;11.30;80.60;;;;;;5052904;28;20032;-77
2022/02/17 11:04:24;;;;;;;8.23;1.48;;;11.30;80.50;;;;;;5016395;28;20035;-76
2022/02/17 11:06:52;;;;;;;6.03;1.48;;;11.30;80.80;;;;;;5026560;28;20053;-76
2022/02/17 11:09:18;;;;;;;6.80;1.35;;;11.30;80.70;;;;;;5024312;28;20021;-78
2022/02/17 11:11:54;;;;;;;6.07;1.30;;;11.30;80.90;;;;;;5034824;28;20112;-77
2022/02/17 11:14:37;;;;;;;4.95;1.52;;;11.30;80.90;;;;;;5025006;28;20032;-76
2022/02/17 11:17:05;;;;;;;6.38;1.13;;;11.30;80.80;;;;;;5025062;28;20021;-76
2022/02/17 11:19:32;;;;;;;6.30;1.73;;;11.30;80.60;;;;;;5023785;28;20032;-77
2022/02/17 11:21:58;;;;;;;4.15;1.10;;;11.30;79.90;;;;;;5018625;28;20036;-78
2022/02/17 11:24:23;;;;;;;7.43;1.55;;;11.40;79.70;;;;;;5022964;28;20033;-76
2022/02/17 11:27:02;;;;;;;6.05;1.30;;;11.40;79.40;;;;;;5045664;28;20047;-76
2022/02/17 11:29:33;;;;;;;5.30;1.23;;;11.50;79.50;;;;;;5039241;28;20532;-77
2022/02/17 11:32:02;;;;;;;8.30;1.58;;;11.50;79.60;;;;;;5045969;28;20033;-77
2022/02/17 11:34:43;;;;;;;7.93;1.30;;;11.50;79.50;;;;;;5043302;28;20406;-78
2022/02/17 11:37:30;;;;;;;;;;;11.60;79.30;;;;;;5052822;28;20025;-78
2022/02/17 11:40:08;;;;;;;16.20;1.98;;;11.60;79.40;;;;;;5034527;28;19943;-78
2022/02/17 11:42:46;;;;;;;20.25;2.30;;;11.60;79.30;;;;;;5034434;28;20313;-78
2022/02/17 11:45:20;;;;;;;13.75;1.98;;;11.60;79.10;;;;;;5034283;28;20025;-78
2022/02/17 11:48:05;;;;;;;11.45;1.60;;;11.60;79.20;;;;;;5034583;28;20031;-78
2022/02/17 11:50:45;;;;;;;12.65;1.70;;;11.60;79.00;;;;;;5033953;28;20028;-78
2022/02/17 11:53:35;;;;;;;7.33;1.20;;;11.70;78.60;;;;;;5051919;28;20024;-79
2022/02/17 11:56:06;;;;;;;12.57;1.60;;;11.70;78.50;;;;;;5052343;28;20263;-78
2022/02/17 11:58:41;;;;;;;12.77;1.55;;;11.70;78.60;;;;;;5033648;28;20021;-78
2022/02/17 12:01:32;;;;;;;10.15;2.10;;;11.70;78.70;;;;;;5034056;28;20032;-78
2022/02/17 12:03:57;;;;;;;9.85;1.33;;;11.70;78.90;;;;;;5034090;28;20049;-78
2022/02/17 12:06:44;;;;;;;7.05;1.50;;;11.70;78.80;;;;;;5051916;28;20060;-78
2022/02/17 12:09:10;;;;;;;8.23;1.35;;;11.70;78.70;;;;;;5033905;28;20021;-79
2022/02/17 12:11:41;;;;;;;12.20;1.95;;;11.60;78.60;;;;;;5051622;28;20483;-78
2022/02/17 12:14:08;;;;;;;9.32;1.60;;;11.60;78.60;;;;;;5033896;28;20032;-78
2022/02/17 12:16:41;;;;;;;7.80;1.60;;;11.60;78.60;;;;;;5034094;28;20029;-78
2022/02/17 12:19:15;;;;;;;6.10;1.67;;;11.60;78.50;;;;;;5051564;28;20021;-78
2022/02/17 12:21:42;;;;;;;6.00;1.52;;;11.60;78.40;;;;;;5033870;28;20493;-78
2022/02/17 12:24:09;;;;;;;7.22;1.50;;;11.60;78.40;;;;;;5051564;28;20502;-78
2022/02/17 12:26:47;;;;;;;6.93;1.65;;;11.60;78.40;;;;;;5033942;28;20025;-78
2022/02/17 12:29:19;;;;;;;6.68;1.40;;;11.60;78.50;;;;;;5033670;28;20468;-78
2022/02/17 12:31:45;;;;;;;6.20;1.38;;;11.60;78.60;;;;;;5033778;28;20537;-79
2022/02/17 12:34:11;;;;;;;6.45;1.42;;;11.60;78.70;;;;;;5034002;28;20034;-78
2022/02/17 12:36:36;;;;;;;6.32;1.40;;;11.60;78.40;;;;;;5034025;28;20120;-78
2022/02/17 12:39:04;;;;;;;7.25;1.30;;;11.60;78.20;;;;;;5033596;28;20063;-78
2022/02/17 12:41:29;;;;;;;7.07;1.23;;;11.60;77.90;;;;;;5033665;28;20025;-79
2022/02/17 12:43:55;;;;;;;6.22;1.40;;;11.60;78.00;;;;;;5051535;28;20029;-78
2022/02/17 12:46:20;;;;;;;4.47;1.08;;;11.60;78.20;;;;;;5033728;28;20119;-78
2022/02/17 12:48:46;;;;;;;6.40;1.40;;;11.60;78.20;;;;;;5051063;28;20037;-78